sensor_id;sensor_type;location;lat;lon;timestamp;temperature;humidity
37232;DHT22;23125;48.156;15.954;2023-04-24T00:00:21;14.90;54.00
37232;DHT22;23125;48.156;15.954;2023-04-24T00:02:47;14.80;54.00
37232;DHT22;23125;48.156;15.954;2023-04-24T00:05:16;14.80;54.20
37232;DHT22;23125;48.156;15.954;2023-04-24T00:07:44;14.80;54.20
37232;DHT22;23125;48.156;15.954;2023-04-24T00:10:11;14.70;54.20
37232;DHT22;23125;48.156;15.954;2023-04-24T00:12:38;14.70;54.30
37232;DHT22;23125;48.156;15.954;2023-04-24T00:15:05;14.70;54.30
37232;DHT22;23125;48.156;15.954;2023-04-24T00:17:31;14.60;54.40
37232;DHT22;23125;48.156;15.954;2023-04-24T00:19:57;14.60;54.30
37232;DHT22;23125;48.156;15.954;2023-04-24T00:22:28;14.60;54.30
37232;DHT22;23125;48.156;15.954;2023-04-24T00:24:55;14.50;54.30
37232;DHT22;23125;48.156;15.954;2023-04-24T00:27:21;14.50;54.30
37232;DHT22;23125;48.156;15.954;2023-04-24T00:29:47;14.50;54.50
37232;DHT22;23125;48.156;15.954;2023-04-24T00:32:13;14.50;54.50
37232;DHT22;23125;48.156;15.954;2023-04-24T00:34:40;14.40;54.30
37232;DHT22;23125;48.156;15.954;2023-04-24T00:37:06;14.30;54.20
37232;DHT22;23125;48.156;15.954;2023-04-24T00:39:32;14.30;54.50
37232;DHT22;23125;48.156;15.954;2023-04-24T00:41:58;14.20;54.50
37232;DHT22;23125;48.156;15.954;2023-04-24T00:44:24;14.20;54.70
37232;DHT22;23125;48.156;15.954;2023-04-24T00:46:51;14.10;54.80
37232;DHT22;23125;48.156;15.954;2023-04-24T00:49:22;14.10;54.80
37232;DHT22;23125;48.156;15.954;2023-04-24T00:51:48;14.10;55.40
37232;DHT22;23125;48.156;15.954;2023-04-24T00:54:17;14.10;54.80
37232;DHT22;23125;48.156;15.954;2023-04-24T00:56:44;14.00;54.90
37232;DHT22;23125;48.156;15.954;2023-04-24T00:59:16;14.00;54.90
37232;DHT22;23125;48.156;15.954;2023-04-24T01:01:44;13.90;55.60
37232;DHT22;23125;48.156;15.954;2023-04-24T01:04:12;13.90;55.00
37232;DHT22;23125;48.156;15.954;2023-04-24T01:06:41;13.90;55.10
37232;DHT22;23125;48.156;15.954;2023-04-24T01:09:09;13.80;55.10
37232;DHT22;23125;48.156;15.954;2023-04-24T01:11:37;13.80;55.10
37232;DHT22;23125;48.156;15.954;2023-04-24T01:14:04;13.80;55.10
37232;DHT22;23125;48.156;15.954;2023-04-24T01:16:30;13.70;55.10
37232;DHT22;23125;48.156;15.954;2023-04-24T01:18:56;13.70;55.00
37232;DHT22;23125;48.156;15.954;2023-04-24T01:21:23;13.60;55.00
37232;DHT22;23125;48.156;15.954;2023-04-24T01:23:53;13.60;55.00
37232;DHT22;23125;48.156;15.954;2023-04-24T01:26:19;13.60;55.10
37232;DHT22;23125;48.156;15.954;2023-04-24T01:28:46;13.50;55.20
37232;DHT22;23125;48.156;15.954;2023-04-24T01:31:12;13.50;55.20
37232;DHT22;23125;48.156;15.954;2023-04-24T01:33:38;13.40;55.30
37232;DHT22;23125;48.156;15.954;2023-04-24T01:36:05;13.40;55.40
37232;DHT22;23125;48.156;15.954;2023-04-24T01:38:31;13.30;55.30
37232;DHT22;23125;48.156;15.954;2023-04-24T01:40:57;13.20;55.40
37232;DHT22;23125;48.156;15.954;2023-04-24T01:43:23;13.20;55.60
37232;DHT22;23125;48.156;15.954;2023-04-24T01:45:50;13.20;55.80
37232;DHT22;23125;48.156;15.954;2023-04-24T01:48:15;13.20;55.80
37232;DHT22;23125;48.156;15.954;2023-04-24T01:50:41;13.10;55.80
37232;DHT22;23125;48.156;15.954;2023-04-24T01:53:07;13.10;55.80
37232;DHT22;23125;48.156;15.954;2023-04-24T01:55:33;13.10;55.90
37232;DHT22;23125;48.156;15.954;2023-04-24T01:57:59;13.10;56.00
37232;DHT22;23125;48.156;15.954;2023-04-24T02:00:26;13.10;56.00
37232;DHT22;23125;48.156;15.954;2023-04-24T02:02:52;13.00;55.90
37232;DHT22;23125;48.156;15.954;2023-04-24T02:05:18;12.90;55.80
37232;DHT22;23125;48.156;15.954;2023-04-24T02:07:44;12.90;56.00
37232;DHT22;23125;48.156;15.954;2023-04-24T02:10:10;12.90;56.20
37232;DHT22;23125;48.156;15.954;2023-04-24T02:12:36;12.90;56.40
37232;DHT22;23125;48.156;15.954;2023-04-24T02:15:03;12.80;57.00
37232;DHT22;23125;48.156;15.954;2023-04-24T02:17:29;12.80;56.50
37232;DHT22;23125;48.156;15.954;2023-04-24T02:19:55;12.80;56.70
37232;DHT22;23125;48.156;15.954;2023-04-24T02:22:21;12.80;56.60
37232;DHT22;23125;48.156;15.954;2023-04-24T02:24:46;12.70;56.60
37232;DHT22;23125;48.156;15.954;2023-04-24T02:27:12;12.70;56.70
37232;DHT22;23125;48.156;15.954;2023-04-24T02:29:38;12.70;56.90
37232;DHT22;23125;48.156;15.954;2023-04-24T02:32:04;12.70;57.00
37232;DHT22;23125;48.156;15.954;2023-04-24T02:34:30;12.70;57.00
37232;DHT22;23125;48.156;15.954;2023-04-24T02:36:56;12.70;57.00
37232;DHT22;23125;48.156;15.954;2023-04-24T02:39:22;12.60;56.90
37232;DHT22;23125;48.156;15.954;2023-04-24T02:41:48;12.60;57.00
37232;DHT22;23125;48.156;15.954;2023-04-24T02:44:13;12.60;57.10
37232;DHT22;23125;48.156;15.954;2023-04-24T02:46:39;12.60;57.10
37232;DHT22;23125;48.156;15.954;2023-04-24T02:49:06;12.60;57.20
37232;DHT22;23125;48.156;15.954;2023-04-24T02:51:32;12.60;57.30
37232;DHT22;23125;48.156;15.954;2023-04-24T02:53:58;12.60;57.40
37232;DHT22;23125;48.156;15.954;2023-04-24T02:56:24;12.60;57.50
37232;DHT22;23125;48.156;15.954;2023-04-24T02:58:50;12.60;57.60
37232;DHT22;23125;48.156;15.954;2023-04-24T03:01:16;12.60;57.70
37232;DHT22;23125;48.156;15.954;2023-04-24T03:03:44;12.70;57.90
37232;DHT22;23125;48.156;15.954;2023-04-24T03:06:10;12.60;57.90
37232;DHT22;23125;48.156;15.954;2023-04-24T03:08:36;12.70;58.00
37232;DHT22;23125;48.156;15.954;2023-04-24T03:11:02;12.70;58.00
37232;DHT22;23125;48.156;15.954;2023-04-24T03:13:28;12.70;58.00
37232;DHT22;23125;48.156;15.954;2023-04-24T03:15:54;12.70;58.00
37232;DHT22;23125;48.156;15.954;2023-04-24T03:18:20;12.80;58.20
37232;DHT22;23125;48.156;15.954;2023-04-24T03:20:46;12.80;58.40
37232;DHT22;23125;48.156;15.954;2023-04-24T03:23:13;12.80;58.30
37232;DHT22;23125;48.156;15.954;2023-04-24T03:25:38;12.80;58.60
37232;DHT22;23125;48.156;15.954;2023-04-24T03:28:05;12.90;58.90
37232;DHT22;23125;48.156;15.954;2023-04-24T03:30:30;12.90;59.10
37232;DHT22;23125;48.156;15.954;2023-04-24T03:32:56;13.00;59.50
37232;DHT22;23125;48.156;15.954;2023-04-24T03:35:22;13.00;59.70
37232;DHT22;23125;48.156;15.954;2023-04-24T03:37:48;13.20;60.10
37232;DHT22;23125;48.156;15.954;2023-04-24T03:40:14;13.20;60.20
37232;DHT22;23125;48.156;15.954;2023-04-24T03:42:40;13.30;60.40
37232;DHT22;23125;48.156;15.954;2023-04-24T03:45:06;13.40;60.50
37232;DHT22;23125;48.156;15.954;2023-04-24T03:47:33;13.50;61.10
37232;DHT22;23125;48.156;15.954;2023-04-24T03:49:58;13.60;60.90
37232;DHT22;23125;48.156;15.954;2023-04-24T03:52:25;13.70;61.00
37232;DHT22;23125;48.156;15.954;2023-04-24T03:54:50;13.80;61.10
37232;DHT22;23125;48.156;15.954;2023-04-24T03:57:16;13.90;61.20
37232;DHT22;23125;48.156;15.954;2023-04-24T03:59:42;14.00;61.20
37232;DHT22;23125;48.156;15.954;2023-04-24T04:02:08;14.10;61.30
37232;DHT22;23125;48.156;15.954;2023-04-24T04:04:34;14.20;61.40
37232;DHT22;23125;48.156;15.954;2023-04-24T04:07:00;14.30;61.50
37232;DHT22;23125;48.156;15.954;2023-04-24T04:09:29;14.30;61.40
37232;DHT22;23125;48.156;15.954;2023-04-24T04:11:55;14.40;61.50
37232;DHT22;23125;48.156;15.954;2023-04-24T04:14:21;14.50;61.50
37232;DHT22;23125;48.156;15.954;2023-04-24T04:16:49;14.60;61.70
37232;DHT22;23125;48.156;15.954;2023-04-24T04:19:15;14.60;61.70
37232;DHT22;23125;48.156;15.954;2023-04-24T04:21:41;14.70;61.80
37232;DHT22;23125;48.156;15.954;2023-04-24T04:24:06;14.80;61.80
37232;DHT22;23125;48.156;15.954;2023-04-24T04:26:32;14.80;61.90
37232;DHT22;23125;48.156;15.954;2023-04-24T04:28:59;14.90;62.10
37232;DHT22;23125;48.156;15.954;2023-04-24T04:31:29;15.00;62.10
37232;DHT22;23125;48.156;15.954;2023-04-24T04:33:56;15.10;62.20
37232;DHT22;23125;48.156;15.954;2023-04-24T04:36:22;15.20;62.20
37232;DHT22;23125;48.156;15.954;2023-04-24T04:38:49;15.20;62.20
37232;DHT22;23125;48.156;15.954;2023-04-24T04:41:15;15.30;62.10
37232;DHT22;23125;48.156;15.954;2023-04-24T04:43:42;15.30;62.10
37232;DHT22;23125;48.156;15.954;2023-04-24T04:46:08;15.40;62.10
37232;DHT22;23125;48.156;15.954;2023-04-24T04:48:36;15.50;62.10
37232;DHT22;23125;48.156;15.954;2023-04-24T04:51:03;15.50;62.10
37232;DHT22;23125;48.156;15.954;2023-04-24T04:53:29;15.60;62.30
37232;DHT22;23125;48.156;15.954;2023-04-24T04:55:55;15.70;62.30
37232;DHT22;23125;48.156;15.954;2023-04-24T04:58:22;15.80;62.40
37232;DHT22;23125;48.156;15.954;2023-04-24T05:00:48;15.90;62.50
37232;DHT22;23125;48.156;15.954;2023-04-24T05:03:15;15.90;62.50
37232;DHT22;23125;48.156;15.954;2023-04-24T05:05:41;16.00;62.50
37232;DHT22;23125;48.156;15.954;2023-04-24T05:08:08;16.10;62.50
37232;DHT22;23125;48.156;15.954;2023-04-24T05:10:33;16.10;62.30
37232;DHT22;23125;48.156;15.954;2023-04-24T05:12:59;16.20;62.30
37232;DHT22;23125;48.156;15.954;2023-04-24T05:15:26;16.30;62.30
37232;DHT22;23125;48.156;15.954;2023-04-24T05:17:52;16.40;62.40
37232;DHT22;23125;48.156;15.954;2023-04-24T05:20:18;16.50;62.40
37232;DHT22;23125;48.156;15.954;2023-04-24T05:22:44;16.60;62.40
37232;DHT22;23125;48.156;15.954;2023-04-24T05:25:10;16.70;62.60
37232;DHT22;23125;48.156;15.954;2023-04-24T05:27:38;16.70;62.60
37232;DHT22;23125;48.156;15.954;2023-04-24T05:30:05;16.90;62.90
37232;DHT22;23125;48.156;15.954;2023-04-24T05:32:31;17.10;63.30
37232;DHT22;23125;48.156;15.954;2023-04-24T05:34:57;17.40;64.00
37232;DHT22;23125;48.156;15.954;2023-04-24T05:37:23;17.70;63.70
37232;DHT22;23125;48.156;15.954;2023-04-24T05:39:49;17.90;63.10
37232;DHT22;23125;48.156;15.954;2023-04-24T05:42:15;18.10;62.20
37232;DHT22;23125;48.156;15.954;2023-04-24T05:44:40;18.20;61.60
37232;DHT22;23125;48.156;15.954;2023-04-24T05:47:06;18.20;61.00
37232;DHT22;23125;48.156;15.954;2023-04-24T05:49:32;18.20;60.60
37232;DHT22;23125;48.156;15.954;2023-04-24T05:51:58;18.20;60.30
37232;DHT22;23125;48.156;15.954;2023-04-24T05:54:24;18.20;60.10
37232;DHT22;23125;48.156;15.954;2023-04-24T05:56:50;18.20;59.90
37232;DHT22;23125;48.156;15.954;2023-04-24T05:59:16;18.20;59.90
37232;DHT22;23125;48.156;15.954;2023-04-24T06:01:42;18.20;60.10
37232;DHT22;23125;48.156;15.954;2023-04-24T06:04:08;18.20;59.90
37232;DHT22;23125;48.156;15.954;2023-04-24T06:06:35;18.20;59.50
37232;DHT22;23125;48.156;15.954;2023-04-24T06:09:02;18.20;59.40
37232;DHT22;23125;48.156;15.954;2023-04-24T06:11:28;18.10;59.10
37232;DHT22;23125;48.156;15.954;2023-04-24T06:13:54;18.00;59.10
37232;DHT22;23125;48.156;15.954;2023-04-24T06:16:21;18.00;59.20
37232;DHT22;23125;48.156;15.954;2023-04-24T06:18:47;18.00;59.30
37232;DHT22;23125;48.156;15.954;2023-04-24T06:21:13;18.00;59.30
37232;DHT22;23125;48.156;15.954;2023-04-24T06:23:38;17.90;59.20
37232;DHT22;23125;48.156;15.954;2023-04-24T06:26:04;17.90;59.20
37232;DHT22;23125;48.156;15.954;2023-04-24T06:28:30;17.90;59.10
37232;DHT22;23125;48.156;15.954;2023-04-24T06:30:56;17.80;59.00
37232;DHT22;23125;48.156;15.954;2023-04-24T06:33:22;17.80;59.10
37232;DHT22;23125;48.156;15.954;2023-04-24T06:35:48;17.80;59.10
37232;DHT22;23125;48.156;15.954;2023-04-24T06:38:14;17.80;59.30
37232;DHT22;23125;48.156;15.954;2023-04-24T06:40:41;17.80;59.50
37232;DHT22;23125;48.156;15.954;2023-04-24T06:43:07;17.80;59.60
37232;DHT22;23125;48.156;15.954;2023-04-24T06:45:33;17.90;59.80
37232;DHT22;23125;48.156;15.954;2023-04-24T06:47:59;18.00;60.30
37232;DHT22;23125;48.156;15.954;2023-04-24T06:50:25;18.00;59.50
37232;DHT22;23125;48.156;15.954;2023-04-24T06:52:51;18.00;59.40
37232;DHT22;23125;48.156;15.954;2023-04-24T06:55:17;18.00;59.20
37232;DHT22;23125;48.156;15.954;2023-04-24T06:57:43;18.00;58.90
37232;DHT22;23125;48.156;15.954;2023-04-24T07:00:11;18.10;58.90
37232;DHT22;23125;48.156;15.954;2023-04-24T07:02:37;18.00;58.70
37232;DHT22;23125;48.156;15.954;2023-04-24T07:05:04;18.00;58.60
37232;DHT22;23125;48.156;15.954;2023-04-24T07:07:30;18.00;58.60
37232;DHT22;23125;48.156;15.954;2023-04-24T07:09:57;18.00;58.80
37232;DHT22;23125;48.156;15.954;2023-04-24T07:12:23;18.00;59.40
37232;DHT22;23125;48.156;15.954;2023-04-24T07:14:50;18.00;58.80
37232;DHT22;23125;48.156;15.954;2023-04-24T07:17:16;18.10;58.80
37232;DHT22;23125;48.156;15.954;2023-04-24T07:19:42;18.00;58.50
37232;DHT22;23125;48.156;15.954;2023-04-24T07:22:08;18.10;58.50
37232;DHT22;23125;48.156;15.954;2023-04-24T07:24:37;18.00;58.40
37232;DHT22;23125;48.156;15.954;2023-04-24T07:27:04;18.10;58.40
37232;DHT22;23125;48.156;15.954;2023-04-24T07:29:30;18.00;58.40
37232;DHT22;23125;48.156;15.954;2023-04-24T07:31:56;18.00;58.40
37232;DHT22;23125;48.156;15.954;2023-04-24T07:34:22;18.00;58.20
37232;DHT22;23125;48.156;15.954;2023-04-24T07:36:48;18.00;58.20
37232;DHT22;23125;48.156;15.954;2023-04-24T07:39:14;18.10;58.30
37232;DHT22;23125;48.156;15.954;2023-04-24T07:41:40;18.00;58.20
37232;DHT22;23125;48.156;15.954;2023-04-24T07:44:06;18.00;58.00
37232;DHT22;23125;48.156;15.954;2023-04-24T07:46:32;18.00;58.10
37232;DHT22;23125;48.156;15.954;2023-04-24T07:48:58;17.90;57.90
37232;DHT22;23125;48.156;15.954;2023-04-24T07:51:26;17.90;57.70
37232;DHT22;23125;48.156;15.954;2023-04-24T07:53:56;17.80;57.50
37232;DHT22;23125;48.156;15.954;2023-04-24T07:56:22;17.80;57.50
37232;DHT22;23125;48.156;15.954;2023-04-24T07:58:48;17.70;57.60
37232;DHT22;23125;48.156;15.954;2023-04-24T08:01:14;17.70;57.70
37232;DHT22;23125;48.156;15.954;2023-04-24T08:03:40;17.60;57.70
37232;DHT22;23125;48.156;15.954;2023-04-24T08:06:06;17.60;57.60
37232;DHT22;23125;48.156;15.954;2023-04-24T08:08:32;17.50;57.40
37232;DHT22;23125;48.156;15.954;2023-04-24T08:10:58;17.50;57.40
37232;DHT22;23125;48.156;15.954;2023-04-24T08:13:24;17.40;57.40
37232;DHT22;23125;48.156;15.954;2023-04-24T08:15:49;17.40;57.50
37232;DHT22;23125;48.156;15.954;2023-04-24T08:18:15;17.30;57.60
37232;DHT22;23125;48.156;15.954;2023-04-24T08:20:42;17.30;57.70
37232;DHT22;23125;48.156;15.954;2023-04-24T08:23:08;17.30;57.80
37232;DHT22;23125;48.156;15.954;2023-04-24T08:25:34;17.30;57.80
37232;DHT22;23125;48.156;15.954;2023-04-24T08:28:02;17.30;57.70
37232;DHT22;23125;48.156;15.954;2023-04-24T08:30:29;17.20;57.70
37232;DHT22;23125;48.156;15.954;2023-04-24T08:32:56;17.20;57.80
37232;DHT22;23125;48.156;15.954;2023-04-24T08:35:22;17.20;57.80
37232;DHT22;23125;48.156;15.954;2023-04-24T08:37:49;17.20;57.80
37232;DHT22;23125;48.156;15.954;2023-04-24T08:40:16;17.20;57.70
37232;DHT22;23125;48.156;15.954;2023-04-24T08:42:44;17.20;57.60
37232;DHT22;23125;48.156;15.954;2023-04-24T08:45:13;17.20;57.60
37232;DHT22;23125;48.156;15.954;2023-04-24T08:47:40;17.10;57.70
37232;DHT22;23125;48.156;15.954;2023-04-24T08:50:08;17.10;57.50
37232;DHT22;23125;48.156;15.954;2023-04-24T08:52:35;17.10;57.40
37232;DHT22;23125;48.156;15.954;2023-04-24T08:55:01;17.00;57.30
37232;DHT22;23125;48.156;15.954;2023-04-24T08:57:29;17.00;57.40
37232;DHT22;23125;48.156;15.954;2023-04-24T08:59:56;17.00;57.40
37232;DHT22;23125;48.156;15.954;2023-04-24T09:02:23;17.00;57.50
37232;DHT22;23125;48.156;15.954;2023-04-24T09:04:51;17.00;57.60
37232;DHT22;23125;48.156;15.954;2023-04-24T09:07:19;17.00;57.60
37232;DHT22;23125;48.156;15.954;2023-04-24T09:09:45;16.90;57.40
37232;DHT22;23125;48.156;15.954;2023-04-24T09:12:11;16.90;57.50
37232;DHT22;23125;48.156;15.954;2023-04-24T09:14:38;16.90;57.60
37232;DHT22;23125;48.156;15.954;2023-04-24T09:17:08;16.90;57.40
37232;DHT22;23125;48.156;15.954;2023-04-24T09:19:34;16.80;57.30
37232;DHT22;23125;48.156;15.954;2023-04-24T09:22:05;16.80;57.50
37232;DHT22;23125;48.156;15.954;2023-04-24T09:24:32;16.70;57.50
37232;DHT22;23125;48.156;15.954;2023-04-24T09:26:58;16.70;57.60
37232;DHT22;23125;48.156;15.954;2023-04-24T09:29:25;16.70;57.70
37232;DHT22;23125;48.156;15.954;2023-04-24T09:31:51;16.70;57.80
37232;DHT22;23125;48.156;15.954;2023-04-24T09:34:27;16.70;57.80
37232;DHT22;23125;48.156;15.954;2023-04-24T09:36:54;16.70;57.90
37232;DHT22;23125;48.156;15.954;2023-04-24T09:39:21;16.70;57.90
37232;DHT22;23125;48.156;15.954;2023-04-24T09:41:49;16.70;57.80
37232;DHT22;23125;48.156;15.954;2023-04-24T09:46:53;16.70;57.70
37232;DHT22;23125;48.156;15.954;2023-04-24T09:49:24;16.70;58.20
37232;DHT22;23125;48.156;15.954;2023-04-24T09:51:51;16.70;57.70
37232;DHT22;23125;48.156;15.954;2023-04-24T09:54:20;16.70;57.90
37232;DHT22;23125;48.156;15.954;2023-04-24T09:56:51;16.70;57.80
37232;DHT22;23125;48.156;15.954;2023-04-24T09:59:18;16.70;57.80
37232;DHT22;23125;48.156;15.954;2023-04-24T10:01:45;16.70;57.90
37232;DHT22;23125;48.156;15.954;2023-04-24T10:04:25;16.80;57.90
37232;DHT22;23125;48.156;15.954;2023-04-24T10:06:53;16.70;57.90
37232;DHT22;23125;48.156;15.954;2023-04-24T10:09:22;16.80;58.00
37232;DHT22;23125;48.156;15.954;2023-04-24T10:11:50;16.80;57.90
37232;DHT22;23125;48.156;15.954;2023-04-24T10:14:18;16.80;58.50
37232;DHT22;23125;48.156;15.954;2023-04-24T10:16:45;16.80;58.00
37232;DHT22;23125;48.156;15.954;2023-04-24T10:19:14;16.90;58.10
37232;DHT22;23125;48.156;15.954;2023-04-24T10:21:43;16.90;58.10
37232;DHT22;23125;48.156;15.954;2023-04-24T10:24:16;16.90;58.10
37232;DHT22;23125;48.156;15.954;2023-04-24T10:26:43;16.90;58.00
37232;DHT22;23125;48.156;15.954;2023-04-24T10:29:14;17.00;58.00
37232;DHT22;23125;48.156;15.954;2023-04-24T10:31:41;17.00;58.00
37232;DHT22;23125;48.156;15.954;2023-04-24T10:34:09;17.00;58.20
37232;DHT22;23125;48.156;15.954;2023-04-24T10:36:40;17.10;58.30
37232;DHT22;23125;48.156;15.954;2023-04-24T10:39:09;17.10;58.20
37232;DHT22;23125;48.156;15.954;2023-04-24T10:41:38;17.20;58.20
37232;DHT22;23125;48.156;15.954;2023-04-24T10:44:08;17.20;58.40
37232;DHT22;23125;48.156;15.954;2023-04-24T10:46:39;17.30;58.50
37232;DHT22;23125;48.156;15.954;2023-04-24T10:49:08;17.40;59.40
37232;DHT22;23125;48.156;15.954;2023-04-24T10:51:51;17.60;59.00
37232;DHT22;23125;48.156;15.954;2023-04-24T10:54:42;17.70;59.10
37232;DHT22;23125;48.156;15.954;2023-04-24T10:59:44;17.90;59.20
37232;DHT22;23125;48.156;15.954;2023-04-24T11:02:10;18.10;58.90
37232;DHT22;23125;48.156;15.954;2023-04-24T11:04:36;18.20;59.00
37232;DHT22;23125;48.156;15.954;2023-04-24T11:07:03;18.30;58.90
37232;DHT22;23125;48.156;15.954;2023-04-24T11:09:32;18.40;58.90
37232;DHT22;23125;48.156;15.954;2023-04-24T11:12:11;18.50;58.90
37232;DHT22;23125;48.156;15.954;2023-04-24T11:15:01;18.60;58.90
37232;DHT22;23125;48.156;15.954;2023-04-24T11:20:10;18.80;58.70
37232;DHT22;23125;48.156;15.954;2023-04-24T11:22:39;18.90;58.60
37232;DHT22;23125;48.156;15.954;2023-04-24T11:25:09;19.00;58.40
37232;DHT22;23125;48.156;15.954;2023-04-24T11:27:44;19.10;58.40
37232;DHT22;23125;48.156;15.954;2023-04-24T11:30:11;19.20;58.30
37232;DHT22;23125;48.156;15.954;2023-04-24T11:32:42;19.20;58.30
37232;DHT22;23125;48.156;15.954;2023-04-24T11:37:46;19.40;58.10
37232;DHT22;23125;48.156;15.954;2023-04-24T11:40:15;19.50;58.00
37232;DHT22;23125;48.156;15.954;2023-04-24T11:42:44;19.60;58.00
37232;DHT22;23125;48.156;15.954;2023-04-24T11:47:44;19.80;57.30
37232;DHT22;23125;48.156;15.954;2023-04-24T11:50:12;19.90;57.30
37232;DHT22;23125;48.156;15.954;2023-04-24T11:52:40;20.00;58.20
37232;DHT22;23125;48.156;15.954;2023-04-24T11:55:22;20.20;57.70
37232;DHT22;23125;48.156;15.954;2023-04-24T11:57:59;20.20;56.90
37232;DHT22;23125;48.156;15.954;2023-04-24T12:00:27;20.30;56.70
37232;DHT22;23125;48.156;15.954;2023-04-24T12:03:23;20.40;56.60
37232;DHT22;23125;48.156;15.954;2023-04-24T12:05:48;20.40;56.40
37232;DHT22;23125;48.156;15.954;2023-04-24T12:08:29;20.40;56.10
37232;DHT22;23125;48.156;15.954;2023-04-24T12:10:56;20.50;55.80
37232;DHT22;23125;48.156;15.954;2023-04-24T12:13:25;20.50;55.40
37232;DHT22;23125;48.156;15.954;2023-04-24T12:15:51;20.40;55.20
37232;DHT22;23125;48.156;15.954;2023-04-24T12:18:17;20.50;55.10
37232;DHT22;23125;48.156;15.954;2023-04-24T12:20:43;20.50;55.20
37232;DHT22;23125;48.156;15.954;2023-04-24T12:23:09;20.50;55.20
37232;DHT22;23125;48.156;15.954;2023-04-24T12:25:35;20.60;55.20
37232;DHT22;23125;48.156;15.954;2023-04-24T12:30:32;20.70;54.80
37232;DHT22;23125;48.156;15.954;2023-04-24T12:32:59;20.70;54.20
37232;DHT22;23125;48.156;15.954;2023-04-24T12:35:28;20.70;54.00
37232;DHT22;23125;48.156;15.954;2023-04-24T12:37:55;20.70;54.10
37232;DHT22;23125;48.156;15.954;2023-04-24T12:40:22;20.70;54.00
37232;DHT22;23125;48.156;15.954;2023-04-24T12:42:51;20.80;53.70
37232;DHT22;23125;48.156;15.954;2023-04-24T12:45:18;20.70;53.40
37232;DHT22;23125;48.156;15.954;2023-04-24T12:47:46;20.70;53.10
37232;DHT22;23125;48.156;15.954;2023-04-24T12:50:14;20.60;53.20
37232;DHT22;23125;48.156;15.954;2023-04-24T12:52:41;20.60;53.20
37232;DHT22;23125;48.156;15.954;2023-04-24T12:55:07;20.70;53.30
37232;DHT22;23125;48.156;15.954;2023-04-24T12:57:36;20.70;53.10
37232;DHT22;23125;48.156;15.954;2023-04-24T13:00:04;20.70;53.00
37232;DHT22;23125;48.156;15.954;2023-04-24T13:02:30;20.70;52.80
37232;DHT22;23125;48.156;15.954;2023-04-24T13:04:58;20.70;52.60
37232;DHT22;23125;48.156;15.954;2023-04-24T13:07:25;20.70;52.70
37232;DHT22;23125;48.156;15.954;2023-04-24T13:09:52;20.70;52.60
37232;DHT22;23125;48.156;15.954;2023-04-24T13:12:19;20.70;52.40
37232;DHT22;23125;48.156;15.954;2023-04-24T13:14:46;20.70;52.30
37232;DHT22;23125;48.156;15.954;2023-04-24T13:17:12;20.80;52.00
37232;DHT22;23125;48.156;15.954;2023-04-24T13:19:41;20.70;51.90
37232;DHT22;23125;48.156;15.954;2023-04-24T13:22:10;20.70;52.00
37232;DHT22;23125;48.156;15.954;2023-04-24T13:24:36;20.70;52.10
37232;DHT22;23125;48.156;15.954;2023-04-24T13:27:03;20.70;51.80
37232;DHT22;23125;48.156;15.954;2023-04-24T13:29:29;20.70;51.60
37232;DHT22;23125;48.156;15.954;2023-04-24T13:31:56;20.70;51.40
37232;DHT22;23125;48.156;15.954;2023-04-24T13:34:23;20.60;51.50
37232;DHT22;23125;48.156;15.954;2023-04-24T13:36:50;20.60;51.20
37232;DHT22;23125;48.156;15.954;2023-04-24T13:39:17;20.60;51.10
37232;DHT22;23125;48.156;15.954;2023-04-24T13:41:43;20.50;50.90
37232;DHT22;23125;48.156;15.954;2023-04-24T13:44:09;20.50;50.90
37232;DHT22;23125;48.156;15.954;2023-04-24T13:46:35;20.50;51.00
37232;DHT22;23125;48.156;15.954;2023-04-24T13:49:02;20.50;50.80
37232;DHT22;23125;48.156;15.954;2023-04-24T13:51:29;20.40;50.50
37232;DHT22;23125;48.156;15.954;2023-04-24T13:53:56;20.30;50.10
37232;DHT22;23125;48.156;15.954;2023-04-24T13:56:22;20.20;50.30
37232;DHT22;23125;48.156;15.954;2023-04-24T13:58:48;20.10;50.30
37232;DHT22;23125;48.156;15.954;2023-04-24T14:01:15;20.00;50.20
37232;DHT22;23125;48.156;15.954;2023-04-24T14:03:42;19.90;50.40
37232;DHT22;23125;48.156;15.954;2023-04-24T14:06:09;19.90;50.60
37232;DHT22;23125;48.156;15.954;2023-04-24T14:08:35;19.90;50.70
37232;DHT22;23125;48.156;15.954;2023-04-24T14:11:01;19.80;50.40
37232;DHT22;23125;48.156;15.954;2023-04-24T14:13:27;19.70;50.40
37232;DHT22;23125;48.156;15.954;2023-04-24T14:15:53;19.60;50.40
37232;DHT22;23125;48.156;15.954;2023-04-24T14:18:19;19.60;50.40
37232;DHT22;23125;48.156;15.954;2023-04-24T14:20:45;19.50;50.40
37232;DHT22;23125;48.156;15.954;2023-04-24T14:23:11;19.40;50.60
37232;DHT22;23125;48.156;15.954;2023-04-24T14:25:37;19.40;50.90
37232;DHT22;23125;48.156;15.954;2023-04-24T14:28:03;19.30;50.80
37232;DHT22;23125;48.156;15.954;2023-04-24T14:30:29;19.30;50.80
37232;DHT22;23125;48.156;15.954;2023-04-24T14:32:55;19.20;50.90
37232;DHT22;23125;48.156;15.954;2023-04-24T14:35:21;19.20;51.00
37232;DHT22;23125;48.156;15.954;2023-04-24T14:37:47;19.10;50.80
37232;DHT22;23125;48.156;15.954;2023-04-24T14:40:14;19.10;51.10
37232;DHT22;23125;48.156;15.954;2023-04-24T14:42:40;19.00;51.10
37232;DHT22;23125;48.156;15.954;2023-04-24T14:45:06;19.00;51.30
37232;DHT22;23125;48.156;15.954;2023-04-24T14:47:33;18.90;51.30
37232;DHT22;23125;48.156;15.954;2023-04-24T14:49:59;18.80;51.40
37232;DHT22;23125;48.156;15.954;2023-04-24T14:52:25;18.80;51.60
37232;DHT22;23125;48.156;15.954;2023-04-24T14:54:51;18.70;51.40
37232;DHT22;23125;48.156;15.954;2023-04-24T14:57:17;18.50;51.30
37232;DHT22;23125;48.156;15.954;2023-04-24T14:59:43;18.40;51.60
37232;DHT22;23125;48.156;15.954;2023-04-24T15:02:09;18.40;51.70
37232;DHT22;23125;48.156;15.954;2023-04-24T15:04:35;18.30;51.90
37232;DHT22;23125;48.156;15.954;2023-04-24T15:07:01;18.20;51.90
37232;DHT22;23125;48.156;15.954;2023-04-24T15:09:27;18.00;51.90
37232;DHT22;23125;48.156;15.954;2023-04-24T15:11:53;17.90;52.10
37232;DHT22;23125;48.156;15.954;2023-04-24T15:14:19;17.80;52.40
37232;DHT22;23125;48.156;15.954;2023-04-24T15:16:45;17.70;52.60
37232;DHT22;23125;48.156;15.954;2023-04-24T15:19:11;17.60;52.40
37232;DHT22;23125;48.156;15.954;2023-04-24T15:21:37;17.60;52.50
37232;DHT22;23125;48.156;15.954;2023-04-24T15:24:04;17.40;52.50
37232;DHT22;23125;48.156;15.954;2023-04-24T15:26:31;17.30;52.80
37232;DHT22;23125;48.156;15.954;2023-04-24T15:28:57;17.20;52.80